sensor_id;sensor_type;location;lat;lon;timestamp;temperature;humidity
40374;DHT22;26079;45.958;12.492;2023-09-18T00:02:08;19.70;99.90
40374;DHT22;26079;45.958;12.492;2023-09-18T00:04:33;19.60;99.90
40374;DHT22;26079;45.958;12.492;2023-09-18T00:06:59;19.50;99.90
40374;DHT22;26079;45.958;12.492;2023-09-18T00:09:25;19.50;99.90
40374;DHT22;26079;45.958;12.492;2023-09-18T00:11:51;19.50;99.90
40374;DHT22;26079;45.958;12.492;2023-09-18T00:14:18;19.50;99.90
40374;DHT22;26079;45.958;12.492;2023-09-18T00:16:44;19.50;99.90
40374;DHT22;26079;45.958;12.492;2023-09-18T00:19:09;19.40;99.90
40374;DHT22;26079;45.958;12.492;2023-09-18T00:21:36;19.50;99.90
40374;DHT22;26079;45.958;12.492;2023-09-18T00:24:03;19.50;99.90
40374;DHT22;26079;45.958;12.492;2023-09-18T00:26:28;19.50;99.90
40374;DHT22;26079;45.958;12.492;2023-09-18T00:28:54;19.60;99.90
40374;DHT22;26079;45.958;12.492;2023-09-18T00:31:20;19.70;99.90
40374;DHT22;26079;45.958;12.492;2023-09-18T00:33:45;19.70;99.90
40374;DHT22;26079;45.958;12.492;2023-09-18T00:36:11;19.70;99.90
40374;DHT22;26079;45.958;12.492;2023-09-18T00:38:37;19.80;99.90
40374;DHT22;26079;45.958;12.492;2023-09-18T00:41:03;19.80;99.90
40374;DHT22;26079;45.958;12.492;2023-09-18T00:43:28;19.80;99.90
40374;DHT22;26079;45.958;12.492;2023-09-18T00:45:54;19.90;99.90
40374;DHT22;26079;45.958;12.492;2023-09-18T00:48:21;19.90;99.90
40374;DHT22;26079;45.958;12.492;2023-09-18T00:50:48;19.90;99.90
40374;DHT22;26079;45.958;12.492;2023-09-18T00:53:17;19.90;99.90
40374;DHT22;26079;45.958;12.492;2023-09-18T00:55:45;19.90;99.90
40374;DHT22;26079;45.958;12.492;2023-09-18T00:58:11;19.90;99.90
40374;DHT22;26079;45.958;12.492;2023-09-18T01:00:37;19.80;99.90
40374;DHT22;26079;45.958;12.492;2023-09-18T01:03:04;19.80;99.90
40374;DHT22;26079;45.958;12.492;2023-09-18T01:05:33;19.70;99.90
40374;DHT22;26079;45.958;12.492;2023-09-18T01:07:59;19.70;99.90
40374;DHT22;26079;45.958;12.492;2023-09-18T01:10:31;19.60;99.90
40374;DHT22;26079;45.958;12.492;2023-09-18T01:13:04;19.60;99.90
40374;DHT22;26079;45.958;12.492;2023-09-18T01:15:35;19.60;99.90
40374;DHT22;26079;45.958;12.492;2023-09-18T01:18:03;19.60;99.90
40374;DHT22;26079;45.958;12.492;2023-09-18T01:20:28;19.60;99.90
40374;DHT22;26079;45.958;12.492;2023-09-18T01:22:54;19.60;99.90
40374;DHT22;26079;45.958;12.492;2023-09-18T01:25:20;19.60;99.90
40374;DHT22;26079;45.958;12.492;2023-09-18T01:27:45;19.70;99.90
40374;DHT22;26079;45.958;12.492;2023-09-18T01:30:11;19.70;99.90
40374;DHT22;26079;45.958;12.492;2023-09-18T01:32:39;19.70;99.90
40374;DHT22;26079;45.958;12.492;2023-09-18T01:35:06;19.60;99.90
40374;DHT22;26079;45.958;12.492;2023-09-18T01:37:34;19.60;99.90
40374;DHT22;26079;45.958;12.492;2023-09-18T01:40:01;19.70;99.90
40374;DHT22;26079;45.958;12.492;2023-09-18T01:42:32;19.70;99.90
40374;DHT22;26079;45.958;12.492;2023-09-18T01:44:58;19.70;99.90
40374;DHT22;26079;45.958;12.492;2023-09-18T01:47:23;19.80;99.90
40374;DHT22;26079;45.958;12.492;2023-09-18T01:49:49;19.80;99.90
40374;DHT22;26079;45.958;12.492;2023-09-18T01:52:15;19.70;99.90
40374;DHT22;26079;45.958;12.492;2023-09-18T01:54:41;19.70;99.90
40374;DHT22;26079;45.958;12.492;2023-09-18T01:57:07;19.70;99.90
40374;DHT22;26079;45.958;12.492;2023-09-18T01:59:33;19.70;99.90
40374;DHT22;26079;45.958;12.492;2023-09-18T02:01:59;19.70;99.90
40374;DHT22;26079;45.958;12.492;2023-09-18T02:04:25;19.80;99.90
40374;DHT22;26079;45.958;12.492;2023-09-18T02:06:52;19.80;99.90
40374;DHT22;26079;45.958;12.492;2023-09-18T02:09:18;19.90;99.90
40374;DHT22;26079;45.958;12.492;2023-09-18T02:11:47;19.90;99.90
40374;DHT22;26079;45.958;12.492;2023-09-18T02:14:13;19.90;99.90
40374;DHT22;26079;45.958;12.492;2023-09-18T02:16:40;19.90;99.90
40374;DHT22;26079;45.958;12.492;2023-09-18T02:19:07;19.80;99.90
40374;DHT22;26079;45.958;12.492;2023-09-18T02:21:34;19.80;99.90
40374;DHT22;26079;45.958;12.492;2023-09-18T02:24:00;19.70;99.90
40374;DHT22;26079;45.958;12.492;2023-09-18T02:26:26;19.70;99.90
40374;DHT22;26079;45.958;12.492;2023-09-18T02:28:52;19.70;99.90
40374;DHT22;26079;45.958;12.492;2023-09-18T02:31:19;19.70;99.90
40374;DHT22;26079;45.958;12.492;2023-09-18T02:33:45;19.60;99.90
40374;DHT22;26079;45.958;12.492;2023-09-18T02:36:12;19.60;99.90
40374;DHT22;26079;45.958;12.492;2023-09-18T02:38:38;19.70;99.90
40374;DHT22;26079;45.958;12.492;2023-09-18T02:41:03;19.60;99.90
40374;DHT22;26079;45.958;12.492;2023-09-18T02:43:29;19.50;99.90
40374;DHT22;26079;45.958;12.492;2023-09-18T02:45:55;19.40;99.90
40374;DHT22;26079;45.958;12.492;2023-09-18T02:48:20;19.40;99.90
40374;DHT22;26079;45.958;12.492;2023-09-18T02:50:46;19.40;99.90
40374;DHT22;26079;45.958;12.492;2023-09-18T02:53:18;19.40;99.90
40374;DHT22;26079;45.958;12.492;2023-09-18T02:55:44;19.40;99.90
40374;DHT22;26079;45.958;12.492;2023-09-18T02:58:10;19.50;99.90
40374;DHT22;26079;45.958;12.492;2023-09-18T03:00:47;19.40;99.90
40374;DHT22;26079;45.958;12.492;2023-09-18T03:03:14;19.40;99.90
40374;DHT22;26079;45.958;12.492;2023-09-18T03:05:41;19.40;99.90
40374;DHT22;26079;45.958;12.492;2023-09-18T03:08:07;19.40;99.90
40374;DHT22;26079;45.958;12.492;2023-09-18T03:10:39;19.40;99.90
40374;DHT22;26079;45.958;12.492;2023-09-18T03:13:06;19.40;99.90
40374;DHT22;26079;45.958;12.492;2023-09-18T03:15:32;19.30;99.90
40374;DHT22;26079;45.958;12.492;2023-09-18T03:17:58;19.40;99.90
40374;DHT22;26079;45.958;12.492;2023-09-18T03:20:28;19.40;99.90
40374;DHT22;26079;45.958;12.492;2023-09-18T03:22:56;19.40;99.90
40374;DHT22;26079;45.958;12.492;2023-09-18T03:25:23;19.50;99.90
40374;DHT22;26079;45.958;12.492;2023-09-18T03:27:51;19.50;99.90
40374;DHT22;26079;45.958;12.492;2023-09-18T03:30:19;19.60;99.90
40374;DHT22;26079;45.958;12.492;2023-09-18T03:32:44;19.60;99.90
40374;DHT22;26079;45.958;12.492;2023-09-18T03:35:11;19.60;99.90
40374;DHT22;26079;45.958;12.492;2023-09-18T03:37:53;19.60;99.90
40374;DHT22;26079;45.958;12.492;2023-09-18T03:40:22;19.60;99.90
40374;DHT22;26079;45.958;12.492;2023-09-18T03:42:48;19.70;99.90
40374;DHT22;26079;45.958;12.492;2023-09-18T03:45:15;19.80;99.90
40374;DHT22;26079;45.958;12.492;2023-09-18T03:47:42;19.80;99.90
40374;DHT22;26079;45.958;12.492;2023-09-18T03:50:12;19.80;99.90
40374;DHT22;26079;45.958;12.492;2023-09-18T03:52:39;19.80;99.90
40374;DHT22;26079;45.958;12.492;2023-09-18T03:55:06;19.80;99.90
40374;DHT22;26079;45.958;12.492;2023-09-18T03:57:32;19.80;99.90
40374;DHT22;26079;45.958;12.492;2023-09-18T03:59:58;19.90;99.90
40374;DHT22;26079;45.958;12.492;2023-09-18T04:02:25;19.90;99.90
40374;DHT22;26079;45.958;12.492;2023-09-18T04:04:51;20.00;99.90
40374;DHT22;26079;45.958;12.492;2023-09-18T04:07:17;20.00;99.90
40374;DHT22;26079;45.958;12.492;2023-09-18T04:09:45;20.00;99.90
40374;DHT22;26079;45.958;12.492;2023-09-18T04:12:10;20.00;99.90
40374;DHT22;26079;45.958;12.492;2023-09-18T04:14:36;19.90;99.90
40374;DHT22;26079;45.958;12.492;2023-09-18T04:17:02;19.90;99.90
40374;DHT22;26079;45.958;12.492;2023-09-18T04:19:28;19.80;99.90
40374;DHT22;26079;45.958;12.492;2023-09-18T04:21:54;19.80;99.90
40374;DHT22;26079;45.958;12.492;2023-09-18T04:24:20;19.90;99.90
40374;DHT22;26079;45.958;12.492;2023-09-18T04:26:46;19.90;99.90
40374;DHT22;26079;45.958;12.492;2023-09-18T04:29:11;19.80;99.90
40374;DHT22;26079;45.958;12.492;2023-09-18T04:31:37;19.80;99.90
40374;DHT22;26079;45.958;12.492;2023-09-18T04:34:05;19.80;99.90
40374;DHT22;26079;45.958;12.492;2023-09-18T04:36:32;19.70;99.90
40374;DHT22;26079;45.958;12.492;2023-09-18T04:38:57;19.80;99.90
40374;DHT22;26079;45.958;12.492;2023-09-18T04:41:23;19.80;99.90
40374;DHT22;26079;45.958;12.492;2023-09-18T04:43:49;19.80;99.90
40374;DHT22;26079;45.958;12.492;2023-09-18T04:46:16;19.90;99.90
40374;DHT22;26079;45.958;12.492;2023-09-18T04:48:43;19.90;99.90
40374;DHT22;26079;45.958;12.492;2023-09-18T04:51:09;20.00;99.90
40374;DHT22;26079;45.958;12.492;2023-09-18T04:53:36;20.00;99.90
40374;DHT22;26079;45.958;12.492;2023-09-18T04:56:01;20.10;99.90
40374;DHT22;26079;45.958;12.492;2023-09-18T04:58:29;20.00;99.90
40374;DHT22;26079;45.958;12.492;2023-09-18T05:00:55;20.10;99.90
40374;DHT22;26079;45.958;12.492;2023-09-18T05:03:21;20.10;99.90
40374;DHT22;26079;45.958;12.492;2023-09-18T05:05:47;20.10;99.90
40374;DHT22;26079;45.958;12.492;2023-09-18T05:08:13;20.10;99.90
40374;DHT22;26079;45.958;12.492;2023-09-18T05:10:39;20.20;99.90
40374;DHT22;26079;45.958;12.492;2023-09-18T05:13:04;20.20;99.90
40374;DHT22;26079;45.958;12.492;2023-09-18T05:15:30;20.10;99.90
40374;DHT22;26079;45.958;12.492;2023-09-18T05:17:57;20.00;99.90
40374;DHT22;26079;45.958;12.492;2023-09-18T05:20:25;20.00;99.90
40374;DHT22;26079;45.958;12.492;2023-09-18T05:22:51;20.00;99.90
40374;DHT22;26079;45.958;12.492;2023-09-18T05:25:21;20.10;99.90
40374;DHT22;26079;45.958;12.492;2023-09-18T05:27:48;20.10;99.90
40374;DHT22;26079;45.958;12.492;2023-09-18T05:30:25;20.10;99.90
40374;DHT22;26079;45.958;12.492;2023-09-18T05:32:54;20.10;99.90
40374;DHT22;26079;45.958;12.492;2023-09-18T05:35:20;20.10;99.90
40374;DHT22;26079;45.958;12.492;2023-09-18T05:37:46;20.10;99.90
40374;DHT22;26079;45.958;12.492;2023-09-18T05:40:13;20.10;99.90
40374;DHT22;26079;45.958;12.492;2023-09-18T05:42:40;20.20;99.90
40374;DHT22;26079;45.958;12.492;2023-09-18T05:45:10;20.20;99.90
40374;DHT22;26079;45.958;12.492;2023-09-18T05:47:36;20.20;99.90
40374;DHT22;26079;45.958;12.492;2023-09-18T05:50:10;20.30;99.90
40374;DHT22;26079;45.958;12.492;2023-09-18T05:52:40;20.30;99.90
40374;DHT22;26079;45.958;12.492;2023-09-18T05:55:06;20.40;99.90
40374;DHT22;26079;45.958;12.492;2023-09-18T05:57:35;20.40;99.90
40374;DHT22;26079;45.958;12.492;2023-09-18T06:00:01;20.40;99.90
40374;DHT22;26079;45.958;12.492;2023-09-18T06:02:28;20.40;99.90
40374;DHT22;26079;45.958;12.492;2023-09-18T06:04:55;20.50;99.90
40374;DHT22;26079;45.958;12.492;2023-09-18T06:07:26;20.60;99.90
40374;DHT22;26079;45.958;12.492;2023-09-18T06:09:52;20.60;99.90
40374;DHT22;26079;45.958;12.492;2023-09-18T06:12:18;20.70;99.90
40374;DHT22;26079;45.958;12.492;2023-09-18T06:14:43;20.80;99.90
40374;DHT22;26079;45.958;12.492;2023-09-18T06:17:10;20.90;99.90
40374;DHT22;26079;45.958;12.492;2023-09-18T06:19:36;21.00;99.90
40374;DHT22;26079;45.958;12.492;2023-09-18T06:22:02;21.10;99.90
40374;DHT22;26079;45.958;12.492;2023-09-18T06:24:27;21.10;99.90
40374;DHT22;26079;45.958;12.492;2023-09-18T06:26:53;21.10;99.90
40374;DHT22;26079;45.958;12.492;2023-09-18T06:29:19;21.10;99.90
40374;DHT22;26079;45.958;12.492;2023-09-18T06:31:46;21.10;99.90
40374;DHT22;26079;45.958;12.492;2023-09-18T06:34:12;21.10;99.90
40374;DHT22;26079;45.958;12.492;2023-09-18T06:36:38;21.10;99.90
40374;DHT22;26079;45.958;12.492;2023-09-18T06:39:03;21.20;99.90
40374;DHT22;26079;45.958;12.492;2023-09-18T06:41:29;21.20;99.90
40374;DHT22;26079;45.958;12.492;2023-09-18T06:43:55;21.30;99.90
40374;DHT22;26079;45.958;12.492;2023-09-18T06:46:22;21.40;99.90
40374;DHT22;26079;45.958;12.492;2023-09-18T06:48:48;21.60;99.90
40374;DHT22;26079;45.958;12.492;2023-09-18T06:51:16;21.70;99.90
40374;DHT22;26079;45.958;12.492;2023-09-18T06:53:43;21.80;99.90
40374;DHT22;26079;45.958;12.492;2023-09-18T06:56:09;21.80;99.90
40374;DHT22;26079;45.958;12.492;2023-09-18T06:58:35;21.80;99.90
40374;DHT22;26079;45.958;12.492;2023-09-18T07:01:00;21.90;99.90
40374;DHT22;26079;45.958;12.492;2023-09-18T07:03:26;21.90;99.90
40374;DHT22;26079;45.958;12.492;2023-09-18T07:05:52;21.90;99.90
40374;DHT22;26079;45.958;12.492;2023-09-18T07:08:17;21.90;99.90
40374;DHT22;26079;45.958;12.492;2023-09-18T07:10:49;21.80;99.90
40374;DHT22;26079;45.958;12.492;2023-09-18T07:13:15;21.80;99.90
40374;DHT22;26079;45.958;12.492;2023-09-18T07:15:41;21.80;99.90
40374;DHT22;26079;45.958;12.492;2023-09-18T07:18:07;21.70;99.90
40374;DHT22;26079;45.958;12.492;2023-09-18T07:20:32;21.70;99.90
40374;DHT22;26079;45.958;12.492;2023-09-18T07:22:59;21.70;99.90
40374;DHT22;26079;45.958;12.492;2023-09-18T07:25:24;21.70;99.90
40374;DHT22;26079;45.958;12.492;2023-09-18T07:27:50;21.80;99.90
40374;DHT22;26079;45.958;12.492;2023-09-18T07:30:16;21.80;99.90
40374;DHT22;26079;45.958;12.492;2023-09-18T07:32:42;21.90;99.90
40374;DHT22;26079;45.958;12.492;2023-09-18T07:35:08;22.00;99.90
40374;DHT22;26079;45.958;12.492;2023-09-18T07:37:35;22.10;99.90
40374;DHT22;26079;45.958;12.492;2023-09-18T07:40:04;22.20;99.90
40374;DHT22;26079;45.958;12.492;2023-09-18T07:42:30;22.20;99.90
40374;DHT22;26079;45.958;12.492;2023-09-18T07:44:56;22.20;99.90
40374;DHT22;26079;45.958;12.492;2023-09-18T07:47:22;22.20;99.90
40374;DHT22;26079;45.958;12.492;2023-09-18T07:49:48;22.30;99.90
40374;DHT22;26079;45.958;12.492;2023-09-18T07:52:14;22.30;99.90
40374;DHT22;26079;45.958;12.492;2023-09-18T07:54:40;22.50;99.50
40374;DHT22;26079;45.958;12.492;2023-09-18T07:57:06;22.60;99.70
40374;DHT22;26079;45.958;12.492;2023-09-18T07:59:35;22.70;99.20
40374;DHT22;26079;45.958;12.492;2023-09-18T08:02:02;22.80;99.70
40374;DHT22;26079;45.958;12.492;2023-09-18T08:04:27;22.80;99.00
40374;DHT22;26079;45.958;12.492;2023-09-18T08:06:56;22.80;98.30
40374;DHT22;26079;45.958;12.492;2023-09-18T08:09:21;22.90;98.30
40374;DHT22;26079;45.958;12.492;2023-09-18T08:11:48;22.90;98.30
40374;DHT22;26079;45.958;12.492;2023-09-18T08:14:15;23.00;98.70
40374;DHT22;26079;45.958;12.492;2023-09-18T08:16:41;23.10;97.60
40374;DHT22;26079;45.958;12.492;2023-09-18T08:19:07;23.20;97.20
40374;DHT22;26079;45.958;12.492;2023-09-18T08:21:33;23.00;97.90
40374;DHT22;26079;45.958;12.492;2023-09-18T08:23:59;23.10;98.30
40374;DHT22;26079;45.958;12.492;2023-09-18T08:26:25;23.10;98.60
40374;DHT22;26079;45.958;12.492;2023-09-18T08:28:52;23.00;97.50
40374;DHT22;26079;45.958;12.492;2023-09-18T08:31:18;22.90;98.00
40374;DHT22;26079;45.958;12.492;2023-09-18T08:33:44;22.90;99.30
40374;DHT22;26079;45.958;12.492;2023-09-18T08:36:10;23.00;99.70
40374;DHT22;26079;45.958;12.492;2023-09-18T08:38:35;23.00;99.20
40374;DHT22;26079;45.958;12.492;2023-09-18T08:41:01;22.90;98.40
40374;DHT22;26079;45.958;12.492;2023-09-18T08:43:29;22.80;99.20
40374;DHT22;26079;45.958;12.492;2023-09-18T08:45:57;22.70;99.10
40374;DHT22;26079;45.958;12.492;2023-09-18T08:48:28;22.70;99.50
40374;DHT22;26079;45.958;12.492;2023-09-18T08:51:04;22.70;99.20
40374;DHT22;26079;45.958;12.492;2023-09-18T08:53:32;22.60;99.90
40374;DHT22;26079;45.958;12.492;2023-09-18T08:55:59;22.60;99.90
40374;DHT22;26079;45.958;12.492;2023-09-18T08:58:29;22.60;99.70
40374;DHT22;26079;45.958;12.492;2023-09-18T09:00:57;22.70;99.90
40374;DHT22;26079;45.958;12.492;2023-09-18T09:03:23;22.80;99.90
40374;DHT22;26079;45.958;12.492;2023-09-18T09:05:49;22.90;99.40
40374;DHT22;26079;45.958;12.492;2023-09-18T09:08:15;23.10;98.10
40374;DHT22;26079;45.958;12.492;2023-09-18T09:10:44;23.30;98.20
40374;DHT22;26079;45.958;12.492;2023-09-18T09:13:09;23.60;97.50
40374;DHT22;26079;45.958;12.492;2023-09-18T09:15:44;23.90;96.20
40374;DHT22;26079;45.958;12.492;2023-09-18T09:18:12;24.10;95.20
40374;DHT22;26079;45.958;12.492;2023-09-18T09:20:38;24.10;94.40
40374;DHT22;26079;45.958;12.492;2023-09-18T09:23:05;24.00;94.20
40374;DHT22;26079;45.958;12.492;2023-09-18T09:25:35;23.90;95.00
40374;DHT22;26079;45.958;12.492;2023-09-18T09:28:05;23.90;95.10
40374;DHT22;26079;45.958;12.492;2023-09-18T09:30:32;23.90;95.50
40374;DHT22;26079;45.958;12.492;2023-09-18T09:32:59;24.00;96.20
40374;DHT22;26079;45.958;12.492;2023-09-18T09:35:27;24.00;95.20
40374;DHT22;26079;45.958;12.492;2023-09-18T09:37:56;24.00;95.50
40374;DHT22;26079;45.958;12.492;2023-09-18T09:40:23;23.90;95.90
40374;DHT22;26079;45.958;12.492;2023-09-18T09:42:55;23.90;95.30
40374;DHT22;26079;45.958;12.492;2023-09-18T09:45:29;23.90;95.40
40374;DHT22;26079;45.958;12.492;2023-09-18T09:47:56;23.80;96.00
40374;DHT22;26079;45.958;12.492;2023-09-18T09:50:22;23.80;96.00
40374;DHT22;26079;45.958;12.492;2023-09-18T09:52:51;23.70;96.40
40374;DHT22;26079;45.958;12.492;2023-09-18T09:57:59;23.50;97.50
40374;DHT22;26079;45.958;12.492;2023-09-18T10:00:48;23.40;97.40
40374;DHT22;26079;45.958;12.492;2023-09-18T10:03:18;23.20;97.90
40374;DHT22;26079;45.958;12.492;2023-09-18T10:05:45;23.20;99.20
40374;DHT22;26079;45.958;12.492;2023-09-18T10:08:17;23.20;98.60
40374;DHT22;26079;45.958;12.492;2023-09-18T10:10:52;23.20;98.80
40374;DHT22;26079;45.958;12.492;2023-09-18T10:13:34;23.30;98.60
40374;DHT22;26079;45.958;12.492;2023-09-18T10:16:03;23.40;97.80
40374;DHT22;26079;45.958;12.492;2023-09-18T10:21:14;23.60;97.10
40374;DHT22;26079;45.958;12.492;2023-09-18T10:27:01;23.40;97.40
40374;DHT22;26079;45.958;12.492;2023-09-18T10:29:31;23.40;97.80
40374;DHT22;26079;45.958;12.492;2023-09-18T10:31:58;23.40;98.30
40374;DHT22;26079;45.958;12.492;2023-09-18T10:34:25;23.40;97.50
40374;DHT22;26079;45.958;12.492;2023-09-18T10:36:54;23.50;98.00
40374;DHT22;26079;45.958;12.492;2023-09-18T10:39:20;23.40;96.40
40374;DHT22;26079;45.958;12.492;2023-09-18T10:41:53;23.50;96.50
40374;DHT22;26079;45.958;12.492;2023-09-18T10:44:19;23.50;96.90
40374;DHT22;26079;45.958;12.492;2023-09-18T10:46:49;23.60;96.60
40374;DHT22;26079;45.958;12.492;2023-09-18T10:49:18;23.60;96.80
40374;DHT22;26079;45.958;12.492;2023-09-18T10:51:46;23.60;97.00
40374;DHT22;26079;45.958;12.492;2023-09-18T10:54:16;23.80;96.20
40374;DHT22;26079;45.958;12.492;2023-09-18T10:56:42;23.80;95.00
40374;DHT22;26079;45.958;12.492;2023-09-18T10:59:20;23.80;95.80
40374;DHT22;26079;45.958;12.492;2023-09-18T11:01:46;23.90;95.10
40374;DHT22;26079;45.958;12.492;2023-09-18T11:04:13;23.80;94.30
40374;DHT22;26079;45.958;12.492;2023-09-18T11:09:26;23.60;95.40
40374;DHT22;26079;45.958;12.492;2023-09-18T11:12:04;23.50;95.80
40374;DHT22;26079;45.958;12.492;2023-09-18T11:14:57;23.40;96.90
40374;DHT22;26079;45.958;12.492;2023-09-18T11:17:37;23.40;97.50
40374;DHT22;26079;45.958;12.492;2023-09-18T11:20:15;23.30;98.40
40374;DHT22;26079;45.958;12.492;2023-09-18T11:27:55;23.20;97.10
40374;DHT22;26079;45.958;12.492;2023-09-18T11:30:21;23.20;97.80
40374;DHT22;26079;45.958;12.492;2023-09-18T11:32:53;23.20;98.20
40374;DHT22;26079;45.958;12.492;2023-09-18T11:35:21;23.20;97.40
40374;DHT22;26079;45.958;12.492;2023-09-18T11:37:47;23.30;96.90
40374;DHT22;26079;45.958;12.492;2023-09-18T11:40:40;23.30;97.00
40374;DHT22;26079;45.958;12.492;2023-09-18T11:43:26;23.40;97.10
40374;DHT22;26079;45.958;12.492;2023-09-18T11:45:56;23.50;96.40
40374;DHT22;26079;45.958;12.492;2023-09-18T11:48:24;23.50;96.50
40374;DHT22;26079;45.958;12.492;2023-09-18T11:50:51;23.60;95.70
40374;DHT22;26079;45.958;12.492;2023-09-18T11:53:18;23.60;96.20
40374;DHT22;26079;45.958;12.492;2023-09-18T11:55:44;23.60;96.00
40374;DHT22;26079;45.958;12.492;2023-09-18T11:58:14;23.60;95.90
40374;DHT22;26079;45.958;12.492;2023-09-18T12:00:39;23.80;95.90
40374;DHT22;26079;45.958;12.492;2023-09-18T12:03:17;23.90;96.40
40374;DHT22;26079;45.958;12.492;2023-09-18T12:05:52;24.00;95.10
40374;DHT22;26079;45.958;12.492;2023-09-18T12:08:19;24.00;95.30
40374;DHT22;26079;45.958;12.492;2023-09-18T12:10:48;24.20;94.60
40374;DHT22;26079;45.958;12.492;2023-09-18T12:13:14;24.50;94.00
40374;DHT22;26079;45.958;12.492;2023-09-18T12:15:40;24.90;93.30
40374;DHT22;26079;45.958;12.492;2023-09-18T12:18:08;25.30;92.10
40374;DHT22;26079;45.958;12.492;2023-09-18T12:20:34;25.50;91.00
40374;DHT22;26079;45.958;12.492;2023-09-18T12:23:01;25.50;90.40
40374;DHT22;26079;45.958;12.492;2023-09-18T12:25:28;25.40;90.60
40374;DHT22;26079;45.958;12.492;2023-09-18T12:27:54;25.00;90.70
40374;DHT22;26079;45.958;12.492;2023-09-18T12:30:21;24.60;92.20
40374;DHT22;26079;45.958;12.492;2023-09-18T12:32:49;24.70;93.50
40374;DHT22;26079;45.958;12.492;2023-09-18T12:35:15;24.70;92.40
40374;DHT22;26079;45.958;12.492;2023-09-18T12:37:41;24.80;93.10
40374;DHT22;26079;45.958;12.492;2023-09-18T12:40:28;24.90;92.30
40374;DHT22;26079;45.958;12.492;2023-09-18T12:42:56;25.10;92.00
40374;DHT22;26079;45.958;12.492;2023-09-18T12:45:23;25.40;91.10
40374;DHT22;26079;45.958;12.492;2023-09-18T12:47:50;25.40;91.50
40374;DHT22;26079;45.958;12.492;2023-09-18T12:50:15;25.40;91.60
40374;DHT22;26079;45.958;12.492;2023-09-18T12:52:41;25.20;90.40
40374;DHT22;26079;45.958;12.492;2023-09-18T12:55:08;25.00;91.10
40374;DHT22;26079;45.958;12.492;2023-09-18T12:57:34;24.90;93.10
40374;DHT22;26079;45.958;12.492;2023-09-18T12:59:59;24.90;92.40
40374;DHT22;26079;45.958;12.492;2023-09-18T13:02:36;25.10;92.20
40374;DHT22;26079;45.958;12.492;2023-09-18T13:05:02;25.00;92.00
40374;DHT22;26079;45.958;12.492;2023-09-18T13:07:29;25.00;92.10
40374;DHT22;26079;45.958;12.492;2023-09-18T13:10:05;25.00;92.50
40374;DHT22;26079;45.958;12.492;2023-09-18T13:12:50;24.80;92.00
40374;DHT22;26079;45.958;12.492;2023-09-18T13:15:28;24.80;92.90
40374;DHT22;26079;45.958;12.492;2023-09-18T13:18:00;24.80;92.20
40374;DHT22;26079;45.958;12.492;2023-09-18T13:20:27;24.80;93.10
40374;DHT22;26079;45.958;12.492;2023-09-18T13:23:03;24.80;92.50
40374;DHT22;26079;45.958;12.492;2023-09-18T13:25:40;24.70;93.60
40374;DHT22;26079;45.958;12.492;2023-09-18T13:28:10;24.60;95.10
40374;DHT22;26079;45.958;12.492;2023-09-18T13:30:37;24.50;94.70
40374;DHT22;26079;45.958;12.492;2023-09-18T13:33:12;24.50;94.50
40374;DHT22;26079;45.958;12.492;2023-09-18T13:35:43;24.60;94.50
40374;DHT22;26079;45.958;12.492;2023-09-18T13:38:09;24.70;95.30
40374;DHT22;26079;45.958;12.492;2023-09-18T13:40:40;24.70;94.20
40374;DHT22;26079;45.958;12.492;2023-09-18T13:43:07;24.70;94.10
40374;DHT22;26079;45.958;12.492;2023-09-18T13:45:36;24.80;94.50
40374;DHT22;26079;45.958;12.492;2023-09-18T13:48:06;24.90;95.30
40374;DHT22;26079;45.958;12.492;2023-09-18T13:50:32;24.90;94.80
40374;DHT22;26079;45.958;12.492;2023-09-18T13:52:58;24.90;93.70
40374;DHT22;26079;45.958;12.492;2023-09-18T13:55:25;24.90;93.30
40374;DHT22;26079;45.958;12.492;2023-09-18T13:57:51;24.90;92.90
40374;DHT22;26079;45.958;12.492;2023-09-18T14:00:17;24.90;93.50
40374;DHT22;26079;45.958;12.492;2023-09-18T14:02:43;25.00;94.00
40374;DHT22;26079;45.958;12.492;2023-09-18T14:05:09;25.10;93.90
40374;DHT22;26079;45.958;12.492;2023-09-18T14:07:37;25.10;93.40
40374;DHT22;26079;45.958;12.492;2023-09-18T14:10:07;24.90;92.80
40374;DHT22;26079;45.958;12.492;2023-09-18T14:12:36;24.90;93.10
40374;DHT22;26079;45.958;12.492;2023-09-18T14:15:02;24.80;93.10
40374;DHT22;26079;45.958;12.492;2023-09-18T14:17:30;24.80;94.20
40374;DHT22;26079;45.958;12.492;2023-09-18T14:19:56;24.80;93.60
40374;DHT22;26079;45.958;12.492;2023-09-18T14:22:22;24.90;93.80
40374;DHT22;26079;45.958;12.492;2023-09-18T14:24:47;25.00;94.20
40374;DHT22;26079;45.958;12.492;2023-09-18T14:27:13;25.10;93.50
40374;DHT22;26079;45.958;12.492;2023-09-18T14:29:39;25.10;93.10
40374;DHT22;26079;45.958;12.492;2023-09-18T14:32:05;25.10;92.90
40374;DHT22;26079;45.958;12.492;2023-09-18T14:34:34;25.10;92.80
40374;DHT22;26079;45.958;12.492;2023-09-18T14:37:01;25.10;93.80
40374;DHT22;26079;45.958;12.492;2023-09-18T14:39:30;25.00;93.80
40374;DHT22;26079;45.958;12.492;2023-09-18T14:41:56;24.80;93.30
40374;DHT22;26079;45.958;12.492;2023-09-18T14:44:22;24.60;93.30
40374;DHT22;26079;45.958;12.492;2023-09-18T14:46:47;24.50;94.30
40374;DHT22;26079;45.958;12.492;2023-09-18T14:49:14;24.50;95.20
40374;DHT22;26079;45.958;12.492;2023-09-18T14:51:40;24.50;94.90
40374;DHT22;26079;45.958;12.492;2023-09-18T14:54:06;24.40;94.70
40374;DHT22;26079;45.958;12.492;2023-09-18T14:56:33;24.40;95.40
40374;DHT22;26079;45.958;12.492;2023-09-18T14:59:01;24.40;95.30
40374;DHT22;26079;45.958;12.492;2023-09-18T15:01:27;24.30;95.40
40374;DHT22;26079;45.958;12.492;2023-09-18T15:03:52;24.20;95.30
40374;DHT22;26079;45.958;12.492;2023-09-18T15:06:18;24.10;95.80
40374;DHT22;26079;45.958;12.492;2023-09-18T15:08:44;24.00;96.60
40374;DHT22;26079;45.958;12.492;2023-09-18T15:11:10;23.90;98.70
40374;DHT22;26079;45.958;12.492;2023-09-18T15:13:36;23.70;99.60
40374;DHT22;26079;45.958;12.492;2023-09-18T15:16:02;23.40;99.90
40374;DHT22;26079;45.958;12.492;2023-09-18T15:18:47;22.90;99.90
40374;DHT22;26079;45.958;12.492;2023-09-18T15:21:14;22.60;99.90
40374;DHT22;26079;45.958;12.492;2023-09-18T15:23:40;22.40;99.90
40374;DHT22;26079;45.958;12.492;2023-09-18T15:26:06;22.40;99.90
40374;DHT22;26079;45.958;12.492;2023-09-18T15:28:32;22.30;99.90
40374;DHT22;26079;45.958;12.492;2023-09-18T15:30:59;22.20;99.90
40374;DHT22;26079;45.958;12.492;2023-09-18T15:33:25;22.20;99.90
40374;DHT22;26079;45.958;12.492;2023-09-18T15:35:54;22.10;99.90